Terminal Aerodrome Forecast
Issued by NWS

Home | Current Version | Previous Version | Text Only | Print | Product List | Glossary On
Versions: 1 2 3 4 5 6 7 8 9 10 11 12 13 14 15 16 17 18 19 20 21 22 23 24 25 26 27 28 29 30 31 32 33 34 35 36 37 38 39 40
000
FTUS44 KLIX 271424 AAB
TAFHDC
TAF AMD
KHDC 271424Z 2714/2812 07010G20KT P6SM OVC060
      TEMPO 2715/2716 VRB35G45KT 1/2SM +TSRA BKN008CB OVC015
     FM271600 10011KT 3SM SHRA BKN015
     FM272300 07013KT 6SM SHRA BKN015
     FM280400 09010KT 4SM -SHRA OVC015=

USA.gov is the U.S. government's official web portal to all federal, state and local government web resources and services.